José Luis Moreno

Chief Scout - Huracán
20 Nov 2027
Saturday
Process

Personality

Adaptability (12) Ambition (1) Controversy (16) Loyalty (11) Pressure (10) Professionalism (6) Sportsmanship (6) Temperament (2)

Profile

Coaching Style Democratic
License National B
Determination 12
Man Management 10
Motivating 11
Discipline 12
Job Satisfaction
100%
Fatigue
0%
Role Chief Scout
Wage 77.5K p/w
Contract 14.03.2030

Performance

Behaviour Good
Training Effectiveness
38%
Player Development
25%
Injury Prevention
55%
Tactical Implementation
50%

Recent Events

Recommended a transfer target now
Recommended a transfer target now
Recommended a transfer target now
Recommended a transfer target now
Recommended a transfer target now
Recommended a transfer target now
Attended a recruitment meeting now
Attended a recruitment meeting now

Currently Monitoring

271
Player Club Status Ability Confidence Watched Last Observed Latest Vote
Geanfranco Rodríguez Defensor Sporting Active 98 / 110 40% 5 16.11.2027 -
Luis Vidal Deportivo Pereira Active 88 / 96 40% 2 16.11.2027 -
Tiago Gordillo San Miguel Active 87 / 97 40% 2 16.11.2027 -
Héctor Preciado Envigado Active 85 / 101 40% 3 15.11.2027 -
Dani Díaz Real Sociedad Active 125 / 111 40% 2 15.11.2027 -
Troy Nyhammer Tromso Active 107 / 136 40% 1 15.11.2027 -
Dylan Salvo Defensores Unidos Active 105 / 94 40% 5 13.11.2027 -
Mateo Alcoba Albion Active 89 / 84 40% 2 13.11.2027 -
Ian Subiabre River Plate Active 116 / 129 40% 1 13.11.2027 -
Nicolás Azambuja Danubio Active 112 / 125 40% 4 10.11.2027 -
Agustín Medina Lanús Active 113 / 122 40% 4 10.11.2027 -
Alex Verón Villarreal Active 111 / 117 40% 4 09.11.2027 -
Oskar Spiten-Nysæter Molde Active 109 / 112 40% 5 09.11.2027 -
Jeremías Merlo AC Milan Active 129 / 115 40% 5 08.11.2027 -
Matías Canedo Rampla Juniors Active 84 / 93 40% 4 08.11.2027 -
Mateo Aguiar Defensa y Justicia Active 109 / 113 40% 2 08.11.2027 -
Abdulrahman Hamisu Niger Tornadoes Active 76 / 94 40% 4 07.11.2027 -
Martín Jiménez Audax Italiano Active 102 / 107 40% 1 07.11.2027 -
Ricardo Solbes Getafe Active 105 / 96 40% 5 06.11.2027 -
Gideon Manaseh Ikorodu City Active 84 / 107 40% 2 06.11.2027 -
Chimobi Igwilo Rangers International Active 99 / 83 40% 4 05.11.2027 -
Diogo Guzmán Montevideo City Torque Active 119 / 120 40% 5 05.11.2027 -
Matías Gómez Valencia Active 125 / 130 40% 4 04.11.2027 -
Tobías Andrada Betis Active 127 / 114 40% 3 04.11.2027 -
Luis Yanes Real Cartagena Active 93 / 110 40% 3 03.11.2027 -
Joseph Abah Remo Stars Active 95 / 97 40% 2 03.11.2027 -
Tiziano Cabrera Central Norte Active 88 / 81 40% 3 01.11.2027 -
Hassan Beja AFC Leopards Active 87 / 97 40% 1 01.11.2027 -
Joel Ezra Enyimba Active 97 / 116 40% 4 31.10.2027 -
Mateo Silvetti Inter Miami CF Active 126 / 120 40% 4 29.10.2027 -
Exequiel Oviedo La Equidad Active 82 / 80 40% 2 29.10.2027 -
Emiliano Zambrano Gimnasia y Esgrima Active 95 / 97 40% 1 29.10.2027 -
Felix Mosquera Deportes Quindio Active 99 / 87 40% 4 28.10.2027 -
Diego Cheuquepal Racing Active 97 / 110 40% 3 28.10.2027 -
Matías Pérez Queens Park Rangers Active 88 / 96 40% 1 26.10.2027 -
Facundo Balatti Penarol Active 101 / 124 40% 3 23.10.2027 -
Gustavo Albarracín Alavés Active 119 / 112 40% 3 23.10.2027 -
Sebastián Flores Rayo Vallecano Active 102 / 129 40% 4 22.10.2027 -
Hervin Goyes Deportivo Pasto Active 100 / 105 40% 3 22.10.2027 -
Santos Torrealba Zamora Active 87 / 94 40% 4 21.10.2027 -
Tiago Pucciarelli Alianza Lima Active 106 / 97 40% 2 18.10.2027 -
Facundo Techera Uruguay Montevideo Active 88 / 77 40% 2 16.10.2027 -
Dilan Villarreal Junior Active 91 / 90 40% 3 14.10.2027 -
Felipe Serrés Wanderers Active 96 / 113 40% 3 14.10.2027 -
Lautaro Gutiérrez Girona Active 105 / 98 40% 2 14.10.2027 -
Juan Camilo Córdoba Deportivo Pereira Active 88 / 84 40% 5 11.10.2027 -
Esteban de Lima Tacuarembo Active 89 / 86 40% 2 11.10.2027 -
Joel Orlando Real Sociedad Active 125 / 141 40% 3 09.10.2027 -
Edwin Hormaza Depor Active 83 / 97 40% 2 09.10.2027 -
Alan Torterolo Defensor Sporting Active 95 / 96 40% 2 06.10.2027 -
Benicio Morales Veracruz Active 85 / 92 40% 1 04.10.2027 -
Ihojan Pérez Cerro Largo Active 96 / 90 40% 2 29.09.2027 -
Iván Barbona Colón Active 90 / 95 40% 1 29.09.2027 -
Matías Argüello Libertad Active 96 / 99 40% 3 25.09.2027 -
Alex Woiski Caracas Active 93 / 88 40% 1 20.09.2027 -
Lucas Velásquez Huachipato Active 95 / 104 40% 1 18.09.2027 -
Germán Barbas Penarol Active 107 / 121 40% 1 13.09.2027 -
Alexis Rodríguez Deportivo Lara Active 92 / 89 40% 2 12.09.2027 -
Carlos da Rosa Cerro Active 91 / 104 40% 1 08.09.2027 -
Lucas Bergvall Tottenham Active 142 / 168 40% 2 06.07.2027 -
Gonçalo Oliveira Benfica Active 120 / 119 40% 1 15.06.2027 -
Jaydee Canvot Liverpool Active 138 / 141 40% 1 15.06.2027 -
Facundo Torres AIK Active 134 / 134 67% 1 01.06.2027 Approve
Roberto Alvarado Porto Active 139 / 139 66% 1 01.06.2027 Approve
Pedro de la Vega Leganés Active 133 / 134 66% 1 01.06.2027 Approve
Federico Pereira Huracán Negotiating 135 / 135 66% 1 01.06.2027 Approve
Thiago Almada Fiorentina Active 145 / 146 69% 1 01.06.2027 Approve
Caio Vidal FC Copenhagen Active 128 / 129 63% 1 01.06.2027 Approve
Juan David Arizala Udinese Active 116 / 115 40% 1 31.05.2027 -
Samuel Lucero Defensa y Justicia Active 110 / 129 40% 1 31.05.2027 -
Santiago Colidio Eibar Active 100 / 111 40% 1 31.05.2027 -
Ethan Galbraith Swansea City Active 125 / 118 40% 5 30.05.2027 -
Harry Clarke Preston Active 127 / 146 40% 3 30.05.2027 -
Million Manhoef Stoke City Active 124 / 136 40% 1 30.05.2027 -
Enzo Barrenechea Burnley Active 157 / 130 40% 7 29.05.2027 Monitor
Zeidane Inoussa Swansea City Active 119 / 111 40% 3 29.05.2027 -
Finn Azaz Southampton Active 133 / 130 40% 4 28.05.2027 -
Camilo Durán Bloemfontein Celtic Active 128 / 126 40% 3 28.05.2027 -
Rumarn Burrell Queens Park Rangers Active 133 / 124 40% 6 27.05.2027 -
Dango Ouattara Brentford Active 148 / 135 40% 8 27.05.2027 -
Max Johnston Derby County Active 137 / 109 40% 4 27.05.2027 -
Gonzalo Fulham Active 143 / 139 40% 5 26.05.2027 Monitor
Romano Schmid Frosinone Active 149 / 127 40% 2 26.05.2027 -
Guille Rosas Gijón Active 141 / 133 40% 1 26.05.2027 -
Tariq Lamptey Queens Park Rangers Active 141 / 146 40% 3 25.05.2027 -
Brennan Johnson Everton Active 156 / 156 40% 5 24.05.2027 -
Lamine Cissé Peterborough United Active 122 / 111 40% 2 23.05.2027 -
Isaac Price West Bromwich Albion Active 130 / 139 40% 1 23.05.2027 -
Ignacio Aliseda Cerro Porteno Active 132 / 114 40% 2 21.05.2027 -
Pablo Solari Spartak Moscow Active 140 / 126 40% 4 20.05.2027 -
Isaiah Jones Luton Town Active 123 / 130 40% 4 19.05.2027 -
Ramón Terrats Getafe Active 146 / 133 40% 8 18.05.2027 -
Jeon Jin-Woo Sheffield Wednesday Active 131 / 128 40% 3 18.05.2027 -
Mathias Jørgensen Blackburn Rovers Active 113 / 108 40% 1 18.05.2027 -
Tyrese Campbell Sheffield United Active 122 / 119 40% 2 17.05.2027 -
Brooke Norton-Cuffy Hull City Active 132 / 145 40% 2 17.05.2027 -
Kasey McAteer Ipswich Town Active 129 / 116 40% 1 17.05.2027 -
Ronald Swansea City Active 125 / 142 40% 3 15.05.2027 -
Agustín Hausch Caracas Active 125 / 109 40% 3 15.05.2027 -
Ryan Sessegnon Fulham Active 152 / 134 40% 2 14.05.2027 -
Chemsdine Talbi Sunderland Active 150 / 157 40% 6 14.05.2027 -
Andrea Carboni Monza Active 128 / 143 40% 1 14.05.2027 -
Jacques Ekomié Wrexham Active 135 / 127 40% 1 13.05.2027 -
Emile Smith Rowe Fulham Active 159 / 149 40% 5 10.05.2027 -
Tom Fellows Southampton Active 132 / 144 40% 3 08.05.2027 -
Dávid Strelec Middlesbrough Active 148 / 130 40% 1 08.05.2027 -
Enzo Le Fée Sunderland Active 143 / 125 40% 1 08.05.2027 -
Welington Southampton Active 130 / 140 40% 4 07.05.2027 -
Adam Randell Bristol City Active 127 / 147 40% 1 07.05.2027 -
Benjamin Tsivanyo Aduana Stars Active 88 / 97 40% 1 05.05.2027 -
Dylan Lawlor Cardiff City Active 109 / 127 40% 1 05.05.2027 -
Bakary Haïdara Hearts of Oak Active 107 / 95 40% 1 05.05.2027 -
Tim Iroegbunam Hull City Active 132 / 141 40% 3 04.05.2027 -
Álex Valle Como Active 141 / 154 40% 1 04.05.2027 -
Nathan Collins Brentford Active 141 / 159 40% 2 02.05.2027 Needs More Info
Callum Doyle Wrexham Active 140 / 140 40% 2 02.05.2027 -
Rico Lewis Manchester City Active 148 / 145 40% 1 02.05.2027 -
Rodrigo Gomes Wolverhampton Active 135 / 148 40% 3 30.04.2027 -
Helinho Toluca Active 132 / 143 40% 4 27.04.2027 -
Yankuba Minteh Brighton Active 159 / 158 40% 4 26.04.2027 -
Manor Solomon West Ham United Active 148 / 136 40% 1 26.04.2027 -
Julio Enciso Ipswich Town Active 145 / 135 40% 5 24.04.2027 -
Óscar Mingueza Crystal Palace Active 160 / 167 40% 5 23.04.2027 -
Facundo Di Biasi Getafe Active 113 / 141 40% 2 22.04.2027 -
Jovon Makama Norwich City Active 117 / 141 40% 2 22.04.2027 -
Mfundo Vilakazi Kaizer Chiefs Active 119 / 114 40% 1 22.04.2027 -
Koki Saito Queens Park Rangers Active 125 / 136 40% 6 19.04.2027 -
Imrân Louza Watford Active 138 / 131 40% 1 18.04.2027 -
Jarrad Branthwaite Everton Active 153 / 144 40% 1 18.04.2027 -
Thiago Silvero Sevilla Active 124 / 119 40% 1 18.04.2027 -
Kevin Schade Brentford Active 143 / 143 40% 1 13.04.2027 -
Joe Gelhardt Hull City Active 135 / 144 40% 2 12.04.2027 -
Santiago Pierotti Lecce Active 124 / 148 40% 5 11.04.2027 -
Isma Ruiz Córdoba Active 132 / 138 40% 2 10.04.2027 -
Alex Scott Bournemouth Active 140 / 159 40% 2 10.04.2027 Needs More Info
Jason Knight Bristol City Active 122 / 121 40% 1 07.04.2027 -
Charles De Ketelaere Atalanta Active 162 / 150 40% 1 06.04.2027 -
Max Bird Birmingham Active 130 / 150 40% 1 04.04.2027 -
Nobel Mendy Hull City Active 140 / 146 40% 1 04.04.2027 -
Liam Delap Nottingham Forest Active 148 / 141 40% 1 01.04.2027 -
Shea Charles Southampton Active 144 / 131 40% 2 25.03.2027 -
Matt O'Riley Brighton Active 147 / 126 40% 2 23.03.2027 -
Luca Orellano Atlético Madrid Active 140 / 143 40% 1 22.03.2027 -
Edvin Austbø West Ham United Active 133 / 137 40% 1 22.03.2027 -
Carlos Vicente Udinese Active 138 / 148 40% 3 20.03.2027 -
Mikkel Damsgaard Brentford Active 154 / 156 40% 2 19.03.2027 -
Othmane Maamma Watford Active 118 / 132 40% 1 18.03.2027 -
Abraham Paintsil Hasaacas Active 83 / 84 40% 1 18.03.2027 -
Oliver Skipp Leicester City Active 134 / 135 40% 2 16.03.2027 -
Dan Ndoye Nottingham Forest Active 142 / 146 40% 1 15.03.2027 -
Relebohile Mofokeng Orlando Pirates Active 112 / 114 40% 3 14.03.2027 -
Adam Wharton Crystal Palace Active 153 / 164 40% 1 09.03.2027 Needs More Info
André Wolverhampton Active 144 / 142 40% 2 07.03.2027 -
Christian Krasnodar Active 133 / 116 40% 2 07.03.2027 -
Alessandro Buongiorno Sassuolo Active 153 / 169 40% 1 06.03.2027 -
Lucas Da Cunha Como Active 140 / 164 40% 2 05.03.2027 -
Neco Williams Nottingham Forest Active 139 / 126 40% 1 28.02.2027 -
Mohamed Ali Ben Romdhane Al Ahly Active 125 / 135 40% 1 28.02.2027 -
Jordan Beyer Burnley Active 141 / 143 40% 2 27.02.2027 -
Florentino Luís Ipswich Town Active 146 / 148 40% 1 24.02.2027 -
James Garner Everton Active 144 / 141 40% 1 24.02.2027 -
Nico O'Reilly Manchester City Active 156 / 174 40% 1 20.02.2027 -
Josh Tymon Swansea City Active 117 / 139 40% 1 19.02.2027 -
Ferdi Kadıoğlu Brighton Active 155 / 139 40% 1 17.02.2027 -
Luke McNally Bristol City Active 132 / 125 40% 1 17.02.2027 -
Aidan Morris Middlesbrough Active 131 / 115 40% 1 15.02.2027 -
Ignacio Perruzzi Celta Active 121 / 146 40% 1 15.02.2027 -
Diego Gómez Brighton Active 145 / 155 40% 1 15.02.2027 -
Jacob Greaves Ipswich Town Active 141 / 128 40% 2 10.02.2027 -
Quinten Timber Crystal Palace Active 147 / 165 40% 1 07.02.2027 -
El Hadji Malick Diouf Brentford Active 137 / 134 40% 1 07.02.2027 -
Tyrell Malacia Derby County Active 143 / 127 40% 1 06.02.2027 -
Yasin Ayari Brighton Active 137 / 127 40% 1 06.02.2027 -
Rubens Dinamo Moscow Active 141 / 150 40% 1 05.02.2027 -
Adrien Truffert Bournemouth Active 147 / 131 40% 1 05.02.2027 -
Milan van Ewijk Coventry City Active 134 / 127 40% 1 03.02.2027 -
Alexandr Chernikov Krasnodar Active 128 / 148 40% 1 02.02.2027 -
Alejo Cruz Juventud Active 115 / 131 40% 4 21.12.2026 -
Dale Taylor Blackpool Active 118 / 126 40% 1 21.12.2026 -
Pablo Rodríguez Lech Active 124 / 140 40% 2 01.12.2026 -
Tommy Conway Middlesbrough Active 122 / 115 40% 1 01.12.2026 -
Luca Langoni New England Revolution Active 127 / 136 40% 6 30.11.2026 -
Talles Magno New York City Active 128 / 137 40% 3 29.11.2026 -
Zeki Amdouni Burnley Active 126 / 129 40% 3 29.11.2026 -
Tomás Chancalay Minnesota United FC Active 129 / 137 40% 4 29.11.2026 -
Francisco Galván Deportivo Municipal Active 111 / 114 40% 1 29.11.2026 -
Esequiel Barco Spartak Moscow Active 134 / 120 40% 1 29.11.2026 -
Yousef Salech Cardiff City Active 128 / 113 40% 3 26.11.2026 -
Manfred Ugalde Spartak Moscow Active 138 / 138 40% 2 26.11.2026 -
Diego Sánchez Progreso Active 107 / 98 40% 1 26.11.2026 -
Veljko Birmančević Ferencvaros Active 136 / 128 40% 3 23.11.2026 -
Francisco Bonfiglio Boston River Active 103 / 109 40% 2 23.11.2026 -
Stav Toriel Hapoel Tel Aviv Active 130 / 122 40% 1 23.11.2026 -
Mojmír Chytil Hajduk Split Active 133 / 118 40% 3 21.11.2026 -
Aune Heggebø West Bromwich Albion Active 134 / 121 40% 1 21.11.2026 -
Bertrand Traoré Sunderland Active 128 / 147 40% 1 21.11.2026 -
Taty Castellanos West Ham United Active 141 / 131 40% 2 18.11.2026 -
Taiwo Awoniyi Coventry City Active 141 / 136 40% 1 18.11.2026 -
Callum O'Hare Sheffield United Active 120 / 146 40% 1 17.11.2026 -
Maximiliano Rodríguez Huachipato Active 121 / 110 40% 1 17.11.2026 -
Claudy M'Buyi Rapid Wien Active 121 / 127 40% 1 17.11.2026 -
Troy Parrott Betis Active 145 / 147 40% 3 15.11.2026 -
Martín Ojeda Orlando City Active 139 / 143 40% 9 14.11.2026 -
Dejan Joveljić Seattle Sounders Active 131 / 140 40% 4 12.11.2026 -
Cameron Archer Southampton Active 133 / 118 40% 1 12.11.2026 -
George Hirst Stoke City Active 130 / 145 40% 1 11.11.2026 -
Mostafa Mohamed Konyaspor Active 124 / 134 40% 1 09.11.2026 -
Guilherme Houston Dynamo Active 125 / 104 40% 3 07.11.2026 -
Nicolás Fernández Belgrano Active 131 / 114 40% 3 07.11.2026 -
Ross Stewart Southampton Active 130 / 144 40% 1 07.11.2026 -
Jay Stansfield Birmingham Active 124 / 113 40% 1 06.11.2026 -
Pablo Felipe West Ham United Active 128 / 143 40% 1 06.11.2026 -
Miguel Merentiel Boca Juniors Active 134 / 142 40% 4 05.11.2026 -
Alan Velasco Boca Juniors Active 125 / 130 40% 6 04.11.2026 -
Vegard Erlien Tromso Active 130 / 120 40% 1 03.11.2026 -
Ignacio Russo Tigre Active 121 / 129 40% 3 02.11.2026 -
Leandro Trossard Besiktas Active 150 / 155 40% 6 01.11.2026 -
Wilson Isidor Sunderland Active 133 / 154 40% 2 31.10.2026 -
Tomás Conechny Racing Club Active 127 / 132 40% 3 31.10.2026 -
Edwuin Cetré Estudiantes Active 126 / 140 40% 3 29.10.2026 -
Alex Luna Instituto Active 136 / 145 40% 1 29.10.2026 -
Petar Stanić Ludogorets Active 135 / 121 40% 1 29.10.2026 -
Iván Maggi Sportivo Luqueno Active 116 / 116 40% 2 25.10.2026 -
Ammar Ramadan DAC Dunajska Streda Active 133 / 123 40% 1 25.10.2026 -
Agustín Paz Progreso Active 118 / 107 40% 1 24.10.2026 -
Juan Rocca Gimnasia y Tiro Active 108 / 115 40% 1 20.10.2026 -
Wessam Abou Ali Columbus Crew Active 130 / 111 40% 6 18.10.2026 -
Denis Bouanga Los Angeles Football Club Active 126 / 148 40% 1 18.10.2026 -
Leandro Godoy CSKA Sofia Active 113 / 100 40% 2 16.10.2026 -
Rafael Santos Borré River Plate Active 133 / 138 40% 2 14.10.2026 -
Lewis Morgan Toronto FC Active 123 / 140 40% 3 13.10.2026 -
Alex Valera Universitario Active 124 / 116 40% 4 11.10.2026 -
Kévin Denkey FC Cincinnati Active 127 / 112 40% 1 09.10.2026 -
Liel Abada Charlotte Football Club Active 126 / 121 40% 3 07.10.2026 -
Marcelo Flores Tigres Active 117 / 127 40% 1 05.10.2026 -
Yoshan Valois Lanús Active 116 / 121 40% 1 05.10.2026 -
Santiago Sala Güemes Active 105 / 98 40% 1 04.10.2026 -
Uriel Antuna Pumas UNAM Active 130 / 121 40% 6 02.10.2026 -
Kelvin Yeboah Minnesota United FC Active 125 / 112 40% 2 02.10.2026 -
Duk Atlas Active 109 / 124 40% 1 02.10.2026 -
João Klauss LA Galaxy Active 118 / 135 40% 1 29.09.2026 -
Ola Brynhildsen Bodo/Glimt Active 130 / 129 40% 1 28.09.2026 -
Ola Solbakken FC Nordsjaelland Active 116 / 141 40% 1 28.09.2026 -
Takuma Asano Sanfrecce Hiroshima Active 141 / 151 40% 1 25.09.2026 -
Florián Monzón Atlas Active 121 / 112 40% 2 24.09.2026 -
Mateusz Bogusz Houston Dynamo Active 134 / 108 40% 1 19.09.2026 -
Morgan Guilavogui Real Salt Lake Active 117 / 112 40% 2 18.09.2026 -
Timo Werner San Jose Earthquakes Active 119 / 120 40% 2 18.09.2026 -
Agustín Kahl Racing Active 98 / 103 40% 1 18.09.2026 -
Rafael Navarro St. Louis CITY SC Active 122 / 114 40% 1 17.09.2026 -
Federico Girotti Alianza Lima Active 124 / 111 40% 1 14.09.2026 -
Agustín Venezia Iquique Active 113 / 120 40% 1 14.09.2026 -
Hugo Cuypers Monterrey Active 118 / 133 40% 7 11.09.2026 -
Josh Sargent Toronto FC Active 120 / 127 40% 2 11.09.2026 -
Breel Embolo Atlanta United FC Active 131 / 148 40% 1 10.09.2026 -
Leonardo Campana New England Revolution Active 124 / 108 40% 1 09.09.2026 -
Ignacio Yepez Cerrito Active 105 / 108 40% 1 08.09.2026 -
Sebastián Driussi River Plate Active 124 / 136 40% 1 06.09.2026 -
Ryo Germain Sanfrecce Hiroshima Active 131 / 113 40% 2 02.09.2026 -
Samuel Essende Young Boys Active 129 / 145 40% 1 02.09.2026 -
Erik Prekop Gornik Zabrze Active 117 / 105 40% 1 31.08.2026 -
Diber Cambindo Leon Active 120 / 119 40% 2 25.08.2026 -
Diego Rossi Monterrey Active 128 / 118 40% 1 24.08.2026 -
Sebastián Villa Boca Juniors Active 124 / 129 40% 3 20.08.2026 -
Clayton Olympiacos Active 123 / 143 40% 1 19.08.2026 -
Iqraam Rayners Mamelodi Sundowns Active 120 / 119 40% 1 18.08.2026 -
Pep Biel Charlotte Football Club Active 119 / 140 40% 1 12.08.2026 -
Jesus Ferreira Seattle Sounders Active 120 / 110 40% 1 10.08.2026 -
Jordan Morris Seattle Sounders Active 121 / 132 40% 1 08.08.2026 -
Juninho Pumas UNAM Active 120 / 108 40% 1 06.08.2026 -
Dániel Gazdag New England Revolution Active 121 / 132 40% 1 05.08.2026 -